Time;durP1;ratioP1;P1;durP2;ratioP2;P2;SDS_P1;SDS_P2;PMS_P1;PMS_P2;Temp;Humidity;BMP_temperature;BMP_pressure;BME280_temperature;BME280_humidity;BME280_pressure;Samples;Min_cycle;Max_cycle;Signal;HPM_P1;HPM_P2
2021/01/31 00:02:10;;;;;;;59.10;21.65;;;;;;;-4.23;67.50;98592.34;5098069;28;20052;-48
2021/01/31 00:04:35;;;;;;;54.45;21.58;;;;;;;-4.37;67.77;98604.06;5098104;28;20503;-48
2021/01/31 00:07:01;;;;;;;36.40;15.75;;;;;;;-4.50;68.08;98596.19;5097213;28;20048;-48
2021/01/31 00:09:27;;;;;;;59.92;23.38;;;;;;;-4.58;68.26;98607.13;5097877;28;20097;-48
2021/01/31 00:11:53;;;;;;;50.92;20.88;;;;;;;-4.71;68.28;98609.50;5098343;28;20048;-47
2021/01/31 00:14:18;;;;;;;44.85;19.40;;;;;;;-4.80;68.08;98609.34;5097955;28;20097;-47
2021/01/31 00:16:44;;;;;;;39.35;16.88;;;;;;;-4.91;68.43;98615.94;5098152;28;20052;-47
2021/01/31 00:19:10;;;;;;;30.52;13.13;;;;;;;-4.94;68.54;98621.00;5096990;28;20048;-47
2021/01/31 00:21:36;;;;;;;25.85;10.80;;;;;;;-5.02;69.19;98622.56;5097799;28;20044;-47
2021/01/31 00:24:02;;;;;;;26.95;11.00;;;;;;;-5.13;69.26;98622.41;5098050;28;20112;-47
2021/01/31 00:26:28;;;;;;;25.60;10.85;;;;;;;-5.27;69.67;98624.66;5098016;28;20348;-47
2021/01/31 00:28:53;;;;;;;27.02;11.38;;;;;;;-5.34;69.71;98625.38;5096710;28;20113;-47
2021/01/31 00:31:19;;;;;;;26.77;11.98;;;;;;;-5.43;70.06;98623.53;5096782;28;20127;-47
2021/01/31 00:33:45;;;;;;;29.92;12.77;;;;;;;-5.53;70.18;98623.31;5097560;28;20040;-47
2021/01/31 00:36:11;;;;;;;26.40;12.25;;;;;;;-5.64;70.51;98626.50;5097728;28;20368;-47
2021/01/31 00:38:37;;;;;;;23.65;11.07;;;;;;;-5.71;70.59;98629.75;5097430;28;20059;-47
2021/01/31 00:41:03;;;;;;;26.88;10.20;;;;;;;-5.80;70.66;98629.56;5097443;28;20047;-47
2021/01/31 00:43:28;;;;;;;27.50;11.50;;;;;;;-5.95;70.28;98635.22;5097442;28;20040;-47
2021/01/31 00:45:56;;;;;;;31.40;13.23;;;;;;;-6.03;71.48;98635.91;5096425;28;20044;-47
2021/01/31 00:48:21;;;;;;;33.70;13.60;;;;;;;-6.15;71.46;98637.31;5096316;28;20076;-47
2021/01/31 00:50:47;;;;;;;53.42;19.55;;;;;;;-6.23;72.33;98635.44;5096658;28;20052;-47
2021/01/31 00:53:18;;;;;;;51.88;20.38;;;;;;;-6.30;72.65;98626.81;5097280;28;20169;-47
2021/01/31 00:55:46;;;;;;;57.03;21.10;;;;;;;-6.35;72.56;98636.00;5096560;28;20052;-47
2021/01/31 00:58:19;;;;;;;47.17;18.63;;;;;;;-6.44;72.64;98631.56;5096566;28;20127;-47
2021/01/31 01:00:47;;;;;;;49.10;18.85;;;;;;;-6.53;73.41;98646.66;5095953;28;20059;-47
2021/01/31 01:03:18;;;;;;;51.03;20.13;;;;;;;-6.67;73.74;98641.19;5096467;28;20119;-47
2021/01/31 01:05:55;;;;;;;50.28;20.27;;;;;;;-6.65;73.71;98649.75;5081084;28;20044;-47
2021/01/31 01:08:20;;;;;;;45.50;19.83;;;;;;;-6.68;73.58;98647.13;5097081;28;20059;-47
2021/01/31 01:10:46;;;;;;;45.30;19.70;;;;;;;-6.79;74.32;98651.09;5097116;28;20048;-47
2021/01/31 01:13:12;;;;;;;43.60;17.35;;;;;;;-6.81;74.85;98645.09;5096772;28;20048;-47
2021/01/31 01:15:38;;;;;;;49.60;19.35;;;;;;;-6.85;74.85;98650.94;5097049;28;20063;-47
2021/01/31 01:18:04;;;;;;;58.50;24.33;;;;;;;-6.89;75.27;98649.13;5097822;28;20043;-47
2021/01/31 01:20:30;;;;;;;31.95;13.43;;;;;;;-7.01;76.65;98644.59;5096103;28;20387;-47
2021/01/31 01:22:56;;;;;;;25.17;10.55;;;;;;;-7.02;76.72;98647.06;5096936;28;20444;-47
2021/01/31 01:25:22;;;;;;;26.10;10.18;;;;;;;-7.06;75.94;98648.69;5096883;28;20157;-47
2021/01/31 01:27:48;;;;;;;29.08;10.05;;;;;;;-7.04;75.33;98644.50;5096544;28;20039;-47
2021/01/31 01:30:17;;;;;;;26.15;10.45;;;;;;;-7.13;75.98;98640.03;5096836;28;20059;-47
2021/01/31 01:32:42;;;;;;;34.72;11.05;;;;;;;-7.17;75.71;98638.22;5095653;28;20039;-47
2021/01/31 01:35:09;;;;;;;25.25;11.15;;;;;;;-7.20;75.32;98638.16;5096761;28;20054;-47
2021/01/31 01:37:35;;;;;;;24.83;11.05;;;;;;;-7.38;76.88;98641.03;5096096;28;20036;-47
2021/01/31 01:40:02;;;;;;;30.48;11.18;;;;;;;-7.31;76.39;98647.19;5095853;28;20051;-48
2021/01/31 01:42:28;;;;;;;23.30;10.05;;;;;;;-7.37;76.08;98639.38;5096394;28;20051;-48
2021/01/31 01:44:54;;;;;;;49.58;15.82;;;;;;;-7.48;77.74;98646.69;5096329;28;20047;-47
2021/01/31 01:47:21;;;;;;;49.20;15.73;;;;;;;-7.37;76.48;98654.66;5096260;28;20048;-47
2021/01/31 01:49:47;;;;;;;51.05;16.15;;;;;;;-7.39;75.94;98646.94;5096528;28;20048;-47
2021/01/31 01:52:46;;;;;;;35.72;12.82;;;;;;;-7.35;75.55;98651.31;5096233;28;20047;-47
2021/01/31 01:55:12;;;;;;;36.72;12.48;;;;;;;-7.34;75.40;98654.72;5084820;28;20059;-48
2021/01/31 01:57:44;;;;;;;37.35;13.23;;;;;;;-7.38;75.10;98648.66;5095590;28;20048;-48
2021/01/31 02:00:10;;;;;;;30.70;11.75;;;;;;;-7.37;74.96;98652.97;5095656;28;20347;-48
2021/01/31 02:02:38;;;;;;;28.17;10.75;;;;;;;-7.33;74.98;98651.34;5095095;28;20519;-47
2021/01/31 02:05:06;;;;;;;24.73;9.57;;;;;;;-7.32;74.86;98646.28;5095306;28;20349;-47
2021/01/31 02:07:32;;;;;;;26.00;9.68;;;;;;;-7.33;75.06;98654.75;5096289;28;20093;-47
2021/01/31 02:09:58;;;;;;;24.35;9.20;;;;;;;-7.29;75.18;98646.38;5078788;28;20048;-48
2021/01/31 02:12:25;;;;;;;29.75;8.23;;;;;;;-7.26;74.88;98654.94;5096345;28;20444;-47
2021/01/31 02:14:51;;;;;;;22.45;10.43;;;;;;;-7.22;74.94;98649.09;5099004;28;20048;-47
2021/01/31 02:17:20;;;;;;;20.45;7.88;;;;;;;-7.21;74.72;98650.81;5099307;28;20071;-47
2021/01/31 02:20:14;;;;;;;16.15;7.20;;;;;;;-7.17;74.64;98656.03;5100113;28;20431;-47
2021/01/31 02:22:59;;;;;;;22.35;7.30;;;;;;;-7.17;74.23;98661.13;5099535;28;20048;-47
2021/01/31 02:26:10;;;;;;;21.30;9.40;;;;;;;-7.19;74.19;98652.59;5100393;28;20115;-47
2021/01/31 02:28:47;;;;;;;28.88;11.25;;;;;;;-7.19;74.07;98654.28;5080673;28;20052;-48
2021/01/31 02:31:32;;;;;;;38.50;14.32;;;;;;;-7.20;73.97;98660.19;5099360;28;20085;-48
2021/01/31 02:34:28;;;;;;;45.63;16.10;;;;;;;-7.31;73.45;98654.81;5099325;28;20048;-47
2021/01/31 02:37:23;;;;;;;41.67;14.50;;;;;;;-7.42;73.50;98654.50;5097884;28;20060;-47
2021/01/31 02:40:07;;;;;;;31.30;11.93;;;;;;;-7.59;72.84;98659.13;5098978;28;20433;-47
2021/01/31 02:42:53;;;;;;;30.20;11.32;;;;;;;-7.68;72.95;98655.44;5099700;28;20059;-47
2021/01/31 02:45:26;;;;;;;31.48;12.23;;;;;;;-7.75;73.15;98662.03;5099534;28;20040;-47
2021/01/31 02:47:57;;;;;;;32.88;12.02;;;;;;;-7.88;73.15;98659.97;5098657;28;20534;-47
2021/01/31 02:50:32;;;;;;;34.33;12.02;;;;;;;-7.97;73.21;98663.09;5082575;28;20052;-47
2021/01/31 02:53:11;;;;;;;30.98;11.38;;;;;;;-8.06;73.28;98662.78;5082558;28;20344;-47
2021/01/31 02:55:58;;;;;;;31.38;12.68;;;;;;;-8.17;73.41;98659.94;5082387;28;20052;-47
2021/01/31 02:58:26;;;;;;;31.23;11.35;;;;;;;-8.23;73.51;98665.69;5099713;28;20113;-47
2021/01/31 03:01:00;;;;;;;33.65;12.13;;;;;;;-8.33;73.51;98662.81;5081837;28;20055;-48
2021/01/31 03:04:04;;;;;;;34.40;11.63;;;;;;;-8.38;73.73;98672.88;5082189;28;20076;-47
2021/01/31 03:06:31;;;;;;;;;;;;;;;-8.50;73.74;98673.34;5082334;28;20051;-47
2021/01/31 03:09:40;;;;;;;32.63;12.77;;;;;;;-8.61;74.12;98677.22;5098314;28;19920;-47
2021/01/31 03:12:40;;;;;;;32.00;12.45;;;;;;;-8.71;74.17;98682.78;5096127;28;20056;-47
2021/01/31 03:15:09;;;;;;;41.20;15.00;;;;;;;-8.84;73.85;98678.09;5090153;28;20052;-47
2021/01/31 03:17:58;;;;;;;44.42;15.57;;;;;;;-8.85;74.32;98678.94;5098174;28;20043;-47
2021/01/31 03:20:28;;;;;;;43.53;17.57;;;;;;;-8.92;74.30;98682.09;5097957;28;20059;-47
2021/01/31 03:23:08;;;;;;;37.77;14.63;;;;;;;-8.97;74.31;98679.38;5098335;28;20097;-47
2021/01/31 03:25:42;;;;;;;39.33;14.85;;;;;;;-9.06;74.13;98676.53;5081761;28;20047;-47
2021/01/31 03:28:08;;;;;;;37.57;14.07;;;;;;;-9.16;74.62;98675.34;5099069;28;20044;-47
2021/01/31 03:30:34;;;;;;;44.30;15.30;;;;;;;-9.13;75.03;98683.09;5097917;28;20043;-47
2021/01/31 03:33:20;;;;;;;37.63;13.45;;;;;;;-9.02;75.17;98691.91;5098993;28;20056;-47
2021/01/31 03:35:48;;;;;;;33.57;13.87;;;;;;;-8.97;75.22;98689.53;5097921;28;20040;-47
2021/01/31 03:38:15;;;;;;;37.87;13.27;;;;;;;-8.86;75.44;98700.91;5081281;28;20048;-47
2021/01/31 03:40:42;;;;;;;36.10;14.37;;;;;;;-8.77;75.42;98703.78;5097737;28;20135;-47
2021/01/31 03:43:08;;;;;;;34.90;12.90;;;;;;;-8.68;75.38;98702.34;5081247;28;20051;-47
2021/01/31 03:45:39;;;;;;;44.40;14.57;;;;;;;-8.62;75.44;98711.03;5098799;28;20054;-47
2021/01/31 03:48:14;;;;;;;43.33;15.37;;;;;;;-8.52;75.53;98705.44;5097834;28;20040;-47
2021/01/31 03:50:40;;;;;;;35.83;13.37;;;;;;;-8.46;75.75;98707.31;5098467;28;20048;-47
2021/01/31 03:53:07;;;;;;;44.47;18.03;;;;;;;-8.52;77.15;98714.72;5098640;28;20052;-47
2021/01/31 03:55:32;;;;;;;44.37;18.70;;;;;;;-8.38;77.21;98708.44;5097731;28;20348;-47
2021/01/31 03:58:01;;;;;;;51.83;18.90;;;;;;;-8.39;77.86;98716.84;5097476;28;20050;-47
2021/01/31 04:00:31;;;;;;;48.63;18.10;;;;;;;-8.33;78.27;98718.72;5080797;28;20054;-48
2021/01/31 04:03:03;;;;;;;55.80;20.33;;;;;;;-8.18;77.73;98716.66;5081297;28;20097;-47
2021/01/31 04:05:30;;;;;;;47.93;18.70;;;;;;;-8.08;77.45;98718.69;5097603;28;20048;-47
2021/01/31 04:07:56;;;;;;;49.97;19.50;;;;;;;-8.16;77.92;98725.19;5080387;28;20067;-47
2021/01/31 04:10:22;;;;;;;46.27;17.63;;;;;;;-8.06;77.78;98724.69;5080643;28;20091;-47
2021/01/31 04:12:51;;;;;;;40.25;16.38;;;;;;;-8.06;78.61;98721.25;5097417;28;20052;-47
2021/01/31 04:15:36;;;;;;;46.97;17.87;;;;;;;-8.07;78.78;98720.41;5097035;28;20090;-47
2021/01/31 04:18:02;;;;;;;42.33;17.60;;;;;;;-7.88;78.61;98729.47;5097332;28;20056;-47
2021/01/31 04:20:28;;;;;;;50.35;19.27;;;;;;;-7.73;78.03;98728.19;5097281;28;20435;-47
2021/01/31 04:22:54;;;;;;;44.10;17.13;;;;;;;-7.64;77.49;98725.94;5098089;28;20387;-47
2021/01/31 04:25:20;;;;;;;46.17;16.95;;;;;;;-7.74;77.29;98723.94;5098029;28;20063;-47
2021/01/31 04:27:45;;;;;;;41.90;15.80;;;;;;;-7.65;77.74;98721.66;5097900;28;20060;-47
2021/01/31 04:30:12;;;;;;;47.45;17.98;;;;;;;-7.51;77.24;98720.38;5097065;28;20113;-47
2021/01/31 04:32:38;;;;;;;51.53;17.08;;;;;;;-7.47;77.00;98719.66;5096785;28;20036;-47
2021/01/31 04:35:07;;;;;;;42.97;15.90;;;;;;;-7.50;77.33;98716.19;5096609;28;20101;-47
2021/01/31 04:37:32;;;;;;;41.55;16.08;;;;;;;-7.46;77.57;98729.03;5096882;28;20043;-47
2021/01/31 04:39:58;;;;;;;45.63;17.45;;;;;;;-7.30;76.96;98727.78;5097490;28;20040;-47
2021/01/31 04:42:24;;;;;;;41.53;15.50;;;;;;;-7.31;76.61;98731.16;5097329;28;20059;-47
2021/01/31 04:44:50;;;;;;;47.58;16.27;;;;;;;-7.33;76.62;98730.25;5097657;28;20043;-47
2021/01/31 04:47:25;;;;;;;39.47;15.23;;;;;;;-7.23;76.66;98724.59;5097610;28;20052;-47
2021/01/31 04:50:09;;;;;;;49.03;16.55;;;;;;;-7.19;77.02;98726.38;5096397;28;20040;-47
2021/01/31 04:53:07;;;;;;;51.45;18.42;;;;;;;-7.11;76.38;98731.72;5097552;28;20052;-47
2021/01/31 04:55:39;;;;;;;48.85;17.33;;;;;;;-7.08;76.68;98729.25;5088022;28;20043;-47
2021/01/31 04:58:14;;;;;;;48.25;17.27;;;;;;;-7.21;76.71;98739.88;5096559;28;20122;-47
2021/01/31 05:00:47;;;;;;;42.08;16.33;;;;;;;-7.05;76.95;98739.53;5096877;28;20464;-48
2021/01/31 05:03:13;;;;;;;48.15;18.00;;;;;;;-6.99;76.59;98744.75;5096467;28;20056;-47
2021/01/31 05:05:48;;;;;;;50.15;17.63;;;;;;;-6.97;76.71;98739.72;5097025;28;20055;-47
2021/01/31 05:08:19;;;;;;;48.13;17.80;;;;;;;-7.08;76.89;98742.00;5096312;28;20068;-48
2021/01/31 05:10:47;;;;;;;40.58;16.60;;;;;;;-6.94;77.28;98750.84;5097165;28;20052;-47
2021/01/31 05:13:34;;;;;;;47.22;17.58;;;;;;;-6.86;76.47;98746.84;5096793;28;20444;-47
2021/01/31 05:16:06;;;;;;;46.78;18.17;;;;;;;-6.84;76.49;98754.50;5097109;28;20109;-47
2021/01/31 05:18:33;;;;;;;38.73;16.53;;;;;;;-7.05;77.09;98742.06;5079377;28;20044;-47
2021/01/31 05:21:03;;;;;;;45.90;17.77;;;;;;;-7.01;77.57;98756.59;5096118;28;20348;-48
2021/01/31 05:23:32;;;;;;;45.08;16.83;;;;;;;-6.86;77.31;98756.16;5096171;28;20084;-47
2021/01/31 05:25:58;;;;;;;42.13;18.55;;;;;;;-6.85;77.41;98760.44;5079135;28;20052;-47
2021/01/31 05:28:24;;;;;;;40.63;16.58;;;;;;;-6.82;77.53;98760.53;5079097;28;20044;-47
2021/01/31 05:30:50;;;;;;;37.60;15.48;;;;;;;-6.68;77.16;98759.19;5095944;28;20048;-48
2021/01/31 05:33:17;;;;;;;37.42;16.77;;;;;;;-6.59;76.52;98762.00;5096477;28;20044;-48
2021/01/31 05:36:12;;;;;;;43.97;17.88;;;;;;;-6.65;76.36;98761.84;5096765;28;20325;-47
2021/01/31 05:38:41;;;;;;;41.25;16.45;;;;;;;-6.64;76.54;98767.78;5097069;28;20040;-47
2021/01/31 05:41:31;;;;;;;41.28;16.88;;;;;;;-6.63;76.52;98769.50;5097401;28;20148;-47
2021/01/31 05:43:57;;;;;;;43.78;15.93;;;;;;;-6.50;76.31;98770.69;5096725;28;20040;-47
2021/01/31 05:46:25;;;;;;;40.38;16.83;;;;;;;-6.42;75.64;98780.25;5096298;28;20048;-48
2021/01/31 05:48:51;;;;;;;34.65;15.98;;;;;;;-6.43;75.41;98781.09;5095327;28;20112;-47
2021/01/31 05:51:18;;;;;;;34.40;15.23;;;;;;;-6.37;75.33;98782.91;5078707;28;20036;-48
2021/01/31 05:53:44;;;;;;;34.58;14.52;;;;;;;-6.32;74.96;98776.28;5095604;28;20062;-48
2021/01/31 05:56:30;;;;;;;34.30;15.30;;;;;;;-6.32;75.07;98788.16;5096669;28;20055;-47
2021/01/31 05:59:02;;;;;;;34.63;13.63;;;;;;;-6.33;75.73;98787.28;5095150;28;20048;-47
2021/01/31 06:01:28;;;;;;;33.17;15.57;;;;;;;-6.30;75.58;98794.13;5096321;28;20048;-48
2021/01/31 06:04:13;;;;;;;36.47;15.20;;;;;;;-6.55;76.53;98790.97;5095274;28;20043;-48
2021/01/31 06:06:40;;;;;;;33.85;15.38;;;;;;;-6.34;76.62;98793.19;5096191;28;20044;-48
2021/01/31 06:09:28;;;;;;;39.53;18.50;;;;;;;-6.28;75.96;98795.03;5095425;28;20059;-48
2021/01/31 06:12:02;;;;;;;43.13;18.80;;;;;;;-6.26;75.75;98794.28;5096065;28;20071;-48
2021/01/31 06:14:31;;;;;;;41.53;19.33;;;;;;;-6.19;75.53;98793.59;5079685;28;20117;-47
2021/01/31 06:17:19;;;;;;;43.35;19.27;;;;;;;-6.17;75.22;98797.06;5078389;28;20052;-48
2021/01/31 06:19:45;;;;;;;51.10;22.63;;;;;;;-6.18;75.11;98792.75;5095141;28;20501;-48
2021/01/31 06:22:12;;;;;;;43.72;21.83;;;;;;;-6.18;75.61;98790.22;5095163;28;20048;-47
2021/01/31 06:24:48;;;;;;;40.95;17.13;;;;;;;-6.15;75.37;98803.03;5096239;28;20044;-47
2021/01/31 06:27:34;;;;;;;39.03;16.38;;;;;;;-6.25;74.83;98802.78;5096508;28;20046;-48
2021/01/31 06:30:27;;;;;;;35.90;15.85;;;;;;;-6.21;75.79;98802.88;5096002;28;20131;-48
2021/01/31 06:32:53;;;;;;;45.83;18.08;;;;;;;-6.16;75.24;98797.91;5080475;28;20116;-48
2021/01/31 06:35:21;;;;;;;49.67;18.05;;;;;;;-6.18;75.05;98804.66;5095052;28;20056;-47
2021/01/31 06:38:02;;;;;;;45.00;16.23;;;;;;;-6.16;74.92;98808.97;5078363;28;20044;-48
2021/01/31 06:40:44;;;;;;;43.30;17.73;;;;;;;-6.27;74.96;98810.41;5096115;28;20056;-47
2021/01/31 06:43:10;;;;;;;39.08;17.00;;;;;;;-6.15;74.94;98820.03;5095044;28;20040;-48
2021/01/31 06:45:42;;;;;;;39.97;15.90;;;;;;;-6.13;74.79;98819.25;5095197;28;20443;-47
2021/01/31 06:48:26;;;;;;;37.80;16.25;;;;;;;-6.11;74.44;98821.81;5094756;28;20476;-48
2021/01/31 06:51:03;;;;;;;45.10;18.20;;;;;;;-6.06;74.60;98821.97;5095956;28;20117;-47
2021/01/31 06:53:47;;;;;;;41.35;18.55;;;;;;;-6.17;74.39;98831.88;5095064;28;20135;-47
2021/01/31 06:56:16;;;;;;;41.50;17.75;;;;;;;-6.19;75.02;98833.53;5079537;28;20059;-47
2021/01/31 06:59:23;;;;;;;45.95;19.08;;;;;;;-6.18;75.08;98835.25;5095862;28;20276;-48
2021/01/31 07:02:10;;;;;;;42.50;18.83;;;;;;;-6.07;74.81;98830.44;5089228;28;20063;-48
2021/01/31 07:04:53;;;;;;;46.80;19.60;;;;;;;-6.03;74.51;98829.69;5099612;28;20056;-48
2021/01/31 07:07:33;;;;;;;49.15;18.67;;;;;;;-5.94;74.56;98833.34;5099049;28;20036;-47
2021/01/31 07:10:36;;;;;;;62.65;24.17;;;;;;;-6.00;74.04;98845.06;5099510;28;20075;-48
2021/01/31 07:13:46;;;;;;;105.13;42.03;;;;;;;-5.94;74.77;98838.44;5099490;28;20166;-47
2021/01/31 07:16:18;;;;;;;66.22;27.90;;;;;;;-5.83;74.39;98832.69;5097897;28;20059;-48
2021/01/31 07:19:09;;;;;;;57.67;24.25;;;;;;;-5.72;74.33;98829.59;5099046;28;20134;-48
2021/01/31 07:22:10;;;;;;;54.67;20.75;;;;;;;-5.65;74.11;98834.00;5098760;28;20073;-48
2021/01/31 07:25:16;;;;;;;205.80;82.18;;;;;;;-5.70;73.39;98832.16;5098130;28;20159;-47
2021/01/31 07:28:16;;;;;;;338.55;120.07;;;;;;;-5.61;73.79;98836.63;5089115;28;20372;-48
2021/01/31 07:30:52;;;;;;;132.50;51.50;;;;;;;-5.55;73.55;98835.09;5098071;28;20463;-56
2021/01/31 07:33:40;;;;;;;183.75;61.17;;;;;;;-5.48;73.29;98844.59;5081072;28;20464;-56
2021/01/31 07:36:37;;;;;;;68.45;28.00;;;;;;;-5.44;73.24;98841.28;5098210;28;20071;-56
2021/01/31 07:39:09;;;;;;;56.13;25.10;;;;;;;-5.35;73.06;98845.75;5083466;28;20107;-57
2021/01/31 07:41:36;;;;;;;270.20;97.97;;;;;;;-5.40;72.58;98853.28;5097898;28;20337;-56
2021/01/31 07:44:05;;;;;;;203.95;80.53;;;;;;;-5.24;73.14;98854.50;5097710;28;20055;-56
2021/01/31 07:46:31;;;;;;;110.70;44.30;;;;;;;-5.14;72.75;98857.28;5064649;28;20058;-56
2021/01/31 07:49:01;;;;;;;84.85;37.40;;;;;;;-5.04;72.45;98851.53;5098381;28;20039;-56
2021/01/31 07:51:27;;;;;;;94.68;40.17;;;;;;;-4.96;72.31;98852.56;5097902;28;20048;-56
2021/01/31 07:53:56;;;;;;;84.20;39.35;;;;;;;-4.82;72.31;98851.16;5098352;28;20334;-56
2021/01/31 07:56:31;;;;;;;68.40;33.22;;;;;;;-4.70;71.98;98850.56;5097699;28;20051;-56
2021/01/31 07:59:18;;;;;;;744.35;206.25;;;;;;;-4.75;71.46;98855.56;5097672;28;20044;-56
2021/01/31 08:01:54;;;;;;;178.00;61.25;;;;;;;-4.52;71.65;98853.50;5100973;28;20456;-56
2021/01/31 08:04:43;;;;;;;121.13;44.38;;;;;;;-4.40;71.50;98850.31;5097670;28;20071;-56
2021/01/31 08:07:09;;;;;;;96.80;38.63;;;;;;;-4.28;71.25;98849.69;5098771;28;20090;-56
2021/01/31 08:09:38;;;;;;;106.30;40.13;;;;;;;-4.12;70.70;98855.97;5096899;28;20050;-56
2021/01/31 08:12:14;;;;;;;117.90;49.60;;;;;;;-4.07;70.63;98860.28;5102897;28;20138;-56
2021/01/31 08:15:07;;;;;;;112.90;49.92;;;;;;;-3.96;70.70;98854.50;5116114;28;20107;-56
2021/01/31 08:17:55;;;;;;;128.63;51.83;;;;;;;-3.90;70.02;98859.72;5116997;28;20035;-56
2021/01/31 08:20:29;;;;;;;117.35;46.25;;;;;;;-3.83;70.48;98856.47;5117532;28;20062;-56
2021/01/31 08:23:04;;;;;;;78.22;34.05;;;;;;;-3.67;70.12;98861.00;5117603;28;20479;-56
2021/01/31 08:25:53;;;;;;;84.60;34.00;;;;;;;-3.44;69.86;98865.66;5117443;27;20096;-56
2021/01/31 08:28:20;;;;;;;62.63;29.13;;;;;;;-3.32;69.24;98864.09;5117728;28;20050;-56
2021/01/31 08:31:04;;;;;;;76.78;34.40;;;;;;;-3.23;68.88;98860.84;5117203;28;20035;-56
2021/01/31 08:33:43;;;;;;;80.78;32.78;;;;;;;-3.02;68.35;98869.66;5117407;28;20051;-56
2021/01/31 08:36:18;;;;;;;78.25;30.50;;;;;;;-2.87;68.03;98869.88;5117712;28;20040;-56
2021/01/31 08:38:51;;;;;;;96.53;36.42;;;;;;;-2.73;67.51;98862.38;5117944;28;20051;-56
2021/01/31 08:41:30;;;;;;;113.15;40.78;;;;;;;-2.61;67.42;98865.09;5117163;28;20068;-56
2021/01/31 08:44:16;;;;;;;159.02;53.63;;;;;;;-2.51;66.44;98863.50;5117191;28;20046;-56
2021/01/31 08:46:59;;;;;;;157.18;52.45;;;;;;;-2.33;66.77;98868.00;5108548;28;20055;-56
2021/01/31 08:49:25;;;;;;;131.00;49.15;;;;;;;-2.12;66.71;98876.78;5116553;28;20443;-56
2021/01/31 08:51:58;;;;;;;111.20;45.90;;;;;;;-1.83;65.93;98875.38;5117871;28;20120;-56
2021/01/31 08:54:24;;;;;;;96.15;42.50;;;;;;;-1.64;65.63;98869.56;5117663;28;20097;-57
2021/01/31 08:56:57;;;;;;;102.78;44.20;;;;;;;-1.51;64.71;98868.81;5117727;28;20063;-57
2021/01/31 08:59:27;;;;;;;147.13;57.85;;;;;;;-1.42;63.69;98876.59;5117803;28;20347;-55
2021/01/31 09:02:02;;;;;;;163.00;59.88;;;;;;;-1.38;62.62;98877.50;5099522;28;20056;-55
2021/01/31 09:04:28;;;;;;;137.27;52.08;;;;;;;-0.99;61.94;98878.63;5116861;28;20495;-55
2021/01/31 09:06:59;;;;;;;202.90;70.20;;;;;;;-0.52;62.15;98881.47;5116523;28;20039;-55
2021/01/31 09:09:31;;;;;;;419.38;144.60;;;;;;;-0.24;60.67;98873.84;5100234;28;20047;-56
2021/01/31 09:12:07;;;;;;;196.85;79.13;;;;;;;0.52;61.28;98878.31;5117560;28;20051;-56
2021/01/31 09:14:42;;;;;;;367.40;123.82;;;;;;;0.68;58.43;98874.00;5116397;28;20051;-56
2021/01/31 09:17:09;;;;;;;514.28;190.00;;;;;;;0.50;57.59;98880.03;5117158;28;20047;-56
2021/01/31 09:19:35;;;;;;;219.63;84.72;;;;;;;1.09;57.31;98865.38;5117111;28;20436;-56
2021/01/31 09:22:02;;;;;;;284.70;103.80;;;;;;;1.20;55.70;98873.94;5116020;28;20057;-56
2021/01/31 09:24:33;;;;;;;161.82;62.28;;;;;;;1.55;55.64;98863.50;5117295;28;20047;-56
2021/01/31 09:26:59;;;;;;;310.75;110.15;;;;;;;1.27;54.30;98869.63;5116482;28;20054;-56
2021/01/31 09:29:26;;;;;;;317.75;116.45;;;;;;;1.17;53.54;98876.56;5099401;28;20415;-57
2021/01/31 09:31:54;;;;;;;230.82;87.57;;;;;;;1.11;54.12;98882.56;5099195;28;20059;-56
2021/01/31 09:34:22;;;;;;;175.88;72.97;;;;;;;1.35;54.43;98885.94;5116837;28;20448;-56
2021/01/31 09:37:26;;;;;;;255.57;106.25;;;;;;;1.20;53.92;98875.66;5115979;28;20047;-56
2021/01/31 09:39:54;;;;;;;163.88;73.35;;;;;;;1.50;54.52;98880.75;5061967;28;20060;-56
2021/01/31 09:42:19;;;;;;;120.90;57.97;;;;;;;1.69;54.68;98876.38;5102283;28;20502;-56
2021/01/31 09:44:56;;;;;;;94.60;46.60;;;;;;;1.89;53.57;98875.44;5115091;28;20134;-56
2021/01/31 09:47:22;;;;;;;67.50;32.40;;;;;;;2.10;53.63;98886.50;5097244;28;20100;-56
2021/01/31 09:49:52;;;;;;;57.58;28.20;;;;;;;2.43;53.29;98881.97;5113764;28;20040;-56
2021/01/31 09:52:18;;;;;;;60.83;29.13;;;;;;;2.64;53.37;98874.94;5097337;28;20047;-56
2021/01/31 09:54:44;;;;;;;73.95;36.30;;;;;;;2.72;51.72;98880.91;5096875;28;20047;-56
2021/01/31 09:57:26;;;;;;;46.63;24.77;;;;;;;2.73;50.42;98885.19;5114699;28;20048;-56
2021/01/31 10:00:05;;;;;;;51.00;27.20;;;;;;;2.90;50.64;98882.50;5097083;28;20040;-56
2021/01/31 10:02:38;;;;;;;51.08;25.75;;;;;;;2.80;50.23;98876.53;5116226;28;20212;-56
2021/01/31 10:05:06;;;;;;;52.70;26.88;;;;;;;3.02;50.84;98874.59;5115894;28;20055;-56
2021/01/31 10:07:36;;;;;;;61.83;28.23;;;;;;;3.03;49.91;98876.34;5116761;28;20055;-56
2021/01/31 10:10:37;;;;;;;73.65;33.55;;;;;;;3.03;49.38;98871.16;5115855;28;20134;-56
2021/01/31 10:13:28;;;;;;;92.15;40.75;;;;;;;3.10;49.51;98877.13;5116732;28;20146;-56
2021/01/31 10:16:00;;;;;;;78.60;36.72;;;;;;;3.04;49.35;98875.44;5116681;28;20396;-56
2021/01/31 10:18:33;;;;;;;69.57;31.48;;;;;;;3.07;49.20;98875.44;5116403;28;20167;-56
2021/01/31 10:21:20;;;;;;;91.60;42.88;;;;;;;3.23;48.75;98868.38;5116495;28;20348;-56
2021/01/31 10:23:48;;;;;;;153.43;66.13;;;;;;;3.22;49.18;98872.69;5116588;28;20058;-56
2021/01/31 10:26:21;;;;;;;127.72;59.30;;;;;;;3.17;48.88;98874.47;5116653;28;20035;-56
2021/01/31 10:29:07;;;;;;;;;;;;;;;2.96;48.69;98870.38;5115797;28;20462;-57
2021/01/31 10:31:35;;;;;;;106.68;49.70;;;;;;;3.17;49.16;98868.44;5116700;28;19920;-57
2021/01/31 10:34:03;;;;;;;76.85;35.78;;;;;;;3.18;48.49;98873.56;5116784;28;20044;-56
2021/01/31 10:36:33;;;;;;;48.30;23.08;;;;;;;3.22;48.58;98866.66;5120032;28;20420;-57
2021/01/31 10:39:09;;;;;;;47.08;23.23;;;;;;;3.24;48.28;98865.75;5120543;28;20054;-57
2021/01/31 10:41:38;;;;;;;48.45;23.73;;;;;;;3.31;48.20;98870.88;5120495;28;20188;-57
2021/01/31 10:44:06;;;;;;;41.25;18.65;;;;;;;3.24;47.15;98870.94;5120400;28;20051;-57
2021/01/31 10:46:35;;;;;;;47.15;21.13;;;;;;;3.12;46.75;98872.78;5120131;28;20122;-57
2021/01/31 10:49:01;;;;;;;57.17;24.58;;;;;;;3.12;47.81;98865.91;5120272;28;20048;-56
2021/01/31 10:51:29;;;;;;;52.97;24.27;;;;;;;3.17;48.33;98868.44;5119422;28;20411;-57
2021/01/31 10:53:55;;;;;;;42.33;17.48;;;;;;;3.14;47.41;98868.47;5086124;28;20048;-57
2021/01/31 10:56:21;;;;;;;47.92;19.25;;;;;;;3.10;47.97;98864.19;5120175;28;20051;-56
2021/01/31 10:58:47;;;;;;;51.47;21.35;;;;;;;3.08;47.92;98869.38;5119920;28;20356;-56
2021/01/31 11:01:13;;;;;;;46.97;19.83;;;;;;;2.99;47.71;98864.28;5120017;28;20063;-56
2021/01/31 11:03:39;;;;;;;51.42;19.95;;;;;;;3.00;47.04;98863.44;5102133;28;20044;-56
2021/01/31 11:06:05;;;;;;;45.22;19.33;;;;;;;2.83;46.88;98860.13;5120031;28;20047;-56
2021/01/31 11:08:30;;;;;;;45.28;18.55;;;;;;;2.66;46.94;98868.03;5119876;28;20047;-56
2021/01/31 11:10:57;;;;;;;38.50;19.42;;;;;;;2.54;47.51;98866.41;5119651;28;20051;-56
2021/01/31 11:13:22;;;;;;;33.47;16.67;;;;;;;2.51;47.47;98863.84;5119596;28;20043;-56
2021/01/31 11:15:48;;;;;;;36.72;18.45;;;;;;;2.52;47.80;98868.13;5119803;28;20059;-55
2021/01/31 11:18:14;;;;;;;29.60;14.18;;;;;;;2.52;47.11;98873.31;5119520;28;20378;-56
2021/01/31 11:20:40;;;;;;;33.60;19.77;;;;;;;2.51;47.55;98866.44;5119542;28;20055;-56
2021/01/31 11:23:06;;;;;;;33.17;17.27;;;;;;;2.45;48.19;98859.56;5118575;28;20066;-56
2021/01/31 11:25:32;;;;;;;27.70;13.40;;;;;;;2.52;48.39;98860.38;5119415;28;20040;-56
2021/01/31 11:27:58;;;;;;;25.40;13.30;;;;;;;2.45;47.88;98861.31;5119551;28;20058;-56
2021/01/31 11:30:24;;;;;;;29.10;13.82;;;;;;;2.47;47.58;98851.78;5118675;28;20052;-56
2021/01/31 11:32:50;;;;;;;30.92;15.65;;;;;;;2.46;47.93;98861.28;5119488;28;20051;-56
2021/01/31 11:35:16;;;;;;;87.32;37.25;;;;;;;2.35;47.97;98863.09;5119449;28;20062;-56
2021/01/31 11:37:42;;;;;;;45.33;23.73;;;;;;;2.30;48.08;98850.19;5118261;28;20436;-56
2021/01/31 11:40:08;;;;;;;87.30;35.97;;;;;;;2.35;47.85;98857.94;5119627;28;20379;-56
2021/01/31 11:42:34;;;;;;;220.60;92.05;;;;;;;2.25;48.65;98854.56;5119017;27;20444;-56
2021/01/31 11:45:01;;;;;;;81.15;38.30;;;;;;;2.24;48.65;98857.13;5117645;28;20044;-56
2021/01/31 11:47:27;;;;;;;100.38;47.05;;;;;;;2.33;49.00;98852.75;5118943;28;20132;-56